Oxon Hill, MD (20750)

4:22 AM EDT on September 02, 2014 (GMT -0400)
Old Town North | Change Station
CLOSE
Current Station
Personal Weather Station
Location: Alexandria, VA
Elevation: 18 ft
Nearby Weather Stations

Elev 18 ft 38.82 °N, 77.04 °W | Updated 20 minutes ago

Mostly Cloudy
Mostly Cloudy
79.9 °F
Feels Like 84 °F
N
1.0
Wind Variable Wind from SSW
Gusts 4.0 mph

Today
High -- | Low -- °F
--% Chance of Precip.
Yesterday
High -- | Low -- °F
Precip. -- in
6:37 AM 7:36 PM
Waxing Crescent, 49% visible
Pressure 29.96 in
Visibility 10.0 miles
Clouds Mostly Cloudy 13000 ft
Mostly Cloudy 25000 ft
Heat Index 84 °F
Dew Point 74 °F
Humidity 83%
Rainfall -999.00 in
Snow Depth Not available.
UV 0 out of 12
Pollen 7.50 out of 12
Air Quality Not available.
Flu Activity Not available.
METAR KDCA 020752Z 18004KT 10SM BKN130 BKN250 26/22 A2996 RMK AO2 SLP144 T02610217

More Conditions Fewer Conditions

Pressure 29.96 in
Visibility 10.0 miles
Clouds Mostly Cloudy 13000 ft
Mostly Cloudy 25000 ft
Heat Index 84 °F
Dew Point 74 °F
Humidity 83%
Rainfall -999.00 in
Snow Depth Not available.
UV 0 out of 12
Pollen 7.50 out of 12
Air Quality Not available.
Flu Activity Not available.
METAR KDCA 020752Z 18004KT 10SM BKN130 BKN250 26/22 A2996 RMK AO2 SLP144 T02610217

More Conditions Fewer Conditions

10-Day Weather Forecast

Almanac

Astronomy

Sep. 02, 2014 Rise Set
Actual Time 6:37 AM EDT 7:36 PM EDT
Civil Twilight 6:10 AM EDT 8:03 PM EDT
Nautical Twilight 5:38 AM EDT 8:36 PM EDT
Astronomical Twilight 5:04 AM EDT 9:09 PM EDT
Moon 2:15 PM EDT No Moon Set
Length of Visible Light 13h 53m
Length of Day
12h 58m
Tomorrow will be 2m 26s shorter.
Waxing Crescent, 49% of the Moon is Illuminated
Today
Waxing Crescent
Sep 2
First Quarter
Sep 8
Full
Sep 15
Last Quarter
Sep 24
New

Today's Extremes

State Highs State Lows

Community

WunderPhotos

Upload Photos

1,749,587 photos uploaded!

WunderBlogs® & News

Nearby

Snow Depth

Station Depth Elevation
No new snow has been reported.

Earthquake Activity

City Distance Mag. Time & Date
No recent earthquake activity has been reported nearby.
Minimum magnitude displayed is 2.5.

Coastal Water Temperatures

Place Temperature
Washington, DC 81.0 °F
Baltimore, MD 82.0 °F
Solomons Island, MD 81.0 °F

Nearby Weather Stations